Time;durP1;ratioP1;P1;durP2;ratioP2;P2;SDS_P1;SDS_P2;PMS_P1;PMS_P2;Temp;Humidity;BMP_temperature;BMP_pressure;BME280_temperature;BME280_humidity;BME280_pressure;Samples;Min_cycle;Max_cycle;Signal;HPM_P1;HPM_P2
2022/12/30 00:00:36;;;;;;;55.55;26.50;;;;;;;-0.74;92.45;147145.41;4786151;29;20044;-61
2022/12/30 00:03:02;;;;;;;53.60;26.65;;;;;;;-0.99;93.11;147083.19;4791073;30;20044;-61
2022/12/30 00:05:28;;;;;;;58.97;27.80;;;;;;;-0.90;92.36;147107.31;4789954;30;20035;-62
2022/12/30 00:07:53;;;;;;;52.50;27.83;;;;;;;-0.91;92.45;147104.78;4790967;29;20039;-61
2022/12/30 00:10:19;;;;;;;53.15;25.83;;;;;;;-0.68;92.04;147159.38;4786880;29;20028;-62
2022/12/30 00:35:17;;;;;;;52.33;27.38;;;;;;;-0.63;91.65;147172.09;4785287;30;20043;-62
2022/12/30 00:37:43;;;;;;;50.30;26.80;;;;;;;-0.40;91.13;147229.28;4788605;29;20032;-61
2022/12/30 00:40:09;;;;;;;54.85;27.85;;;;;;;-0.36;90.80;147239.44;4790095;29;20081;-60
2022/12/30 00:45:20;;;;;;;55.97;28.42;;;;;;;-0.47;90.86;147211.47;4790132;30;20039;-61
2022/12/30 00:47:47;;;;;;;51.90;26.45;;;;;;;-0.59;90.56;147182.28;4791861;29;20084;-62
2022/12/30 00:58:25;;;;;;;57.05;27.42;;;;;;;-0.52;91.11;147200.06;4780650;30;20042;-62
2022/12/30 01:00:50;;;;;;;55.08;26.48;;;;;;;-0.56;91.23;147191.13;4780369;30;20031;-62
2022/12/30 01:03:16;;;;;;;59.45;28.25;;;;;;;-0.70;91.79;147155.56;4780619;30;20028;-63
2022/12/30 01:05:41;;;;;;;54.67;27.38;;;;;;;-0.78;91.91;147136.53;4780333;30;20062;-62
2022/12/30 01:08:07;;;;;;;54.50;28.23;;;;;;;-0.72;91.81;147151.75;4780483;30;20081;-60
2022/12/30 01:10:32;;;;;;;58.22;27.55;;;;;;;-0.56;91.00;147191.13;4780409;30;20047;-61
2022/12/30 01:12:58;;;;;;;56.15;28.33;;;;;;;-0.65;91.43;147168.28;4780522;30;20050;-61
2022/12/30 01:15:23;;;;;;;58.08;27.77;;;;;;;-0.77;91.59;147137.78;4782650;30;20084;-60
2022/12/30 01:17:49;;;;;;;66.05;29.55;;;;;;;-0.69;92.07;147158.13;4788976;30;20087;-61
2022/12/30 01:20:15;;;;;;;58.72;28.95;;;;;;;-0.62;92.15;147174.66;4788423;29;20043;-61
2022/12/30 01:22:40;;;;;;;58.97;29.50;;;;;;;-0.88;92.01;147111.13;4791652;30;20091;-62
2022/12/30 01:25:06;;;;;;;63.67;30.00;;;;;;;-0.80;92.17;147130.16;4793625;30;20042;-62
2022/12/30 01:27:32;;;;;;;66.07;30.08;;;;;;;-1.00;92.58;147081.88;4791284;29;20036;-61
2022/12/30 01:29:58;;;;;;;66.28;29.85;;;;;;;-1.17;93.41;147039.97;4780363;30;20043;-61
2022/12/30 01:32:24;;;;;;;61.55;29.50;;;;;;;-1.00;93.95;147080.63;4780255;30;20358;-62
2022/12/30 01:34:54;;;;;;;59.00;29.92;;;;;;;-0.99;93.54;147083.19;4779679;30;20040;-61
2022/12/30 01:37:20;;;;;;;56.45;28.85;;;;;;;-0.90;93.52;147107.31;4788830;30;20039;-61
2022/12/30 01:39:46;;;;;;;59.13;27.70;;;;;;;-1.22;93.89;147027.28;4788882;29;20035;-61
2022/12/30 01:42:29;;;;;;;61.85;30.88;;;;;;;-1.17;93.91;147038.72;4787237;30;20023;-61
2022/12/30 01:45:23;;;;;;;66.18;30.75;;;;;;;-0.95;93.62;147094.59;4786544;30;20043;-61
2022/12/30 01:47:53;;;;;;;58.15;28.17;;;;;;;-1.09;93.85;147060.28;4789816;29;20110;-61
2022/12/30 01:50:27;;;;;;;63.20;30.38;;;;;;;-1.07;93.12;147064.09;4787548;29;20043;-61
2022/12/30 01:53:04;;;;;;;64.22;30.73;;;;;;;-0.95;92.89;147093.34;4786423;30;20032;-62
2022/12/30 01:55:59;;;;;;;64.82;29.98;;;;;;;-0.73;92.35;147147.97;4788413;29;20055;-63
2022/12/30 01:58:30;;;;;;;57.22;29.20;;;;;;;-0.58;92.49;147184.81;4778688;30;20054;-62
2022/12/30 02:00:56;;;;;;;62.17;30.52;;;;;;;-0.56;92.40;147191.13;4786953;30;20027;-63
2022/12/30 02:03:44;;;;;;;57.28;28.10;;;;;;;-0.92;92.55;147100.97;4788793;30;20106;-62
2022/12/30 02:06:18;;;;;;;64.88;31.33;;;;;;;-0.79;92.62;147132.72;4781203;30;20084;-63
2022/12/30 02:08:44;;;;;;;64.85;29.58;;;;;;;-0.92;92.49;147102.22;4791663;29;20049;-63
2022/12/30 02:11:09;;;;;;;61.53;32.08;;;;;;;-1.05;93.28;147069.22;4789190;30;20036;-62
2022/12/30 02:13:35;;;;;;;62.33;30.63;;;;;;;-0.90;93.49;147106.03;4788132;29;20319;-62
2022/12/30 02:16:13;;;;;;;61.00;29.63;;;;;;;-0.71;92.97;147153.06;4786773;30;20080;-61
2022/12/30 02:19:06;;;;;;;64.53;31.75;;;;;;;-0.80;93.12;147130.16;4783240;30;20062;-63
2022/12/30 02:21:50;;;;;;;68.25;31.23;;;;;;;-0.67;92.57;147163.22;4783180;30;20056;-63
2022/12/30 02:24:34;;;;;;;62.75;30.92;;;;;;;-0.52;92.61;147201.31;4769674;30;20066;-62
2022/12/30 02:27:19;;;;;;;67.43;30.77;;;;;;;-0.62;93.08;147174.66;4766685;30;20082;-61
2022/12/30 02:30:09;;;;;;;70.72;32.42;;;;;;;-0.74;92.15;147145.41;4782843;30;20043;-61
2022/12/30 02:33:10;;;;;;;74.00;33.47;;;;;;;-0.76;93.11;147141.59;4781899;30;20368;-61
2022/12/30 02:35:48;;;;;;;68.47;34.22;;;;;;;-0.62;93.04;147174.66;4766715;30;20097;-61
2022/12/30 02:38:32;;;;;;;66.65;31.30;;;;;;;-0.72;93.41;147150.50;4765167;30;20055;-63
2022/12/30 02:47:14;;;;;;;68.85;31.80;;;;;;;-0.81;94.30;147128.91;4791844;29;20050;-62
2022/12/30 02:52:13;;;;;;;75.78;35.22;;;;;;;-0.88;94.44;147112.38;4789372;30;20044;-61
2022/12/30 02:52:31;;;;;;;68.95;31.77;;;;;;;-0.75;93.68;147142.91;4789770;29;20111;-62
2022/12/30 02:54:57;;;;;;;63.35;30.10;;;;;;;-0.98;94.41;147085.69;4782847;30;20036;-62
2022/12/30 02:57:29;;;;;;;70.88;33.28;;;;;;;-0.98;95.05;147087.00;4782941;30;20185;-62
2022/12/30 03:06:28;;;;;;;72.40;32.53;;;;;;;-0.95;95.28;147094.59;4786098;30;20051;-62
2022/12/30 03:09:27;;;;;;;64.75;30.58;;;;;;;-0.82;94.18;147126.38;4784960;30;20040;-61
2022/12/30 03:12:05;;;;;;;72.40;31.77;;;;;;;-0.93;94.27;147098.41;4782264;30;20036;-61
2022/12/30 03:14:33;;;;;;;71.47;31.95;;;;;;;-0.96;94.91;147090.78;4797128;30;20039;-62
2022/12/30 03:17:22;;;;;;;67.07;30.38;;;;;;;-1.05;94.15;147069.22;4788961;30;20196;-61
2022/12/30 03:19:54;;;;;;;62.72;28.88;;;;;;;-1.17;95.40;147038.72;4787792;30;20032;-61
2022/12/30 03:27:56;;;;;;;64.43;31.70;;;;;;;-0.95;94.84;147094.59;4781203;30;20043;-61
2022/12/30 03:30:21;;;;;;;65.70;31.73;;;;;;;-0.84;94.99;147121.31;4782108;30;20205;-61
2022/12/30 03:32:47;;;;;;;65.55;30.08;;;;;;;-0.81;94.34;147127.63;4805464;29;20106;-60
2022/12/30 03:35:13;;;;;;;64.43;29.98;;;;;;;-0.80;94.32;147130.16;4790543;30;20028;-60
2022/12/30 03:37:50;;;;;;;65.80;31.08;;;;;;;-0.71;94.37;147153.06;4787187;29;20039;-60
2022/12/30 03:40:23;;;;;;;70.65;32.53;;;;;;;-0.65;93.37;147167.03;4787705;30;20035;-62
2022/12/30 03:42:51;;;;;;;63.88;30.67;;;;;;;-0.64;93.54;147169.56;4789807;29;20031;-61
2022/12/30 03:45:18;;;;;;;63.00;29.27;;;;;;;-0.71;94.03;147153.06;4803754;29;20035;-61
2022/12/30 03:47:43;;;;;;;63.72;29.75;;;;;;;-0.70;93.50;147155.56;4787156;29;20074;-61
2022/12/30 03:50:09;;;;;;;59.78;28.77;;;;;;;-0.69;93.64;147158.13;4791977;29;20038;-61
2022/12/30 03:52:35;;;;;;;57.75;28.13;;;;;;;-0.72;93.12;147150.50;4795363;29;20035;-61
2022/12/30 03:55:00;;;;;;;60.85;29.48;;;;;;;-0.65;93.61;147168.28;4776658;30;20035;-62
2022/12/30 03:57:26;;;;;;;63.92;28.08;;;;;;;-0.82;94.62;147125.09;4781875;30;20036;-61
2022/12/30 03:59:51;;;;;;;65.47;30.55;;;;;;;-0.89;94.26;147109.84;4781335;30;20039;-60
2022/12/30 04:02:17;;;;;;;59.63;29.27;;;;;;;-0.71;94.16;147154.31;4781758;30;20072;-61
2022/12/30 04:04:42;;;;;;;62.28;31.05;;;;;;;-0.63;93.45;147173.34;4781527;30;20035;-61
2022/12/30 04:07:08;;;;;;;61.80;30.58;;;;;;;-0.51;93.48;147202.63;4785960;30;20081;-62
2022/12/30 04:09:33;;;;;;;65.20;29.70;;;;;;;-0.63;94.15;147173.34;4793402;30;20331;-62
2022/12/30 04:11:59;;;;;;;61.42;29.92;;;;;;;-0.79;94.49;147133.97;4781516;30;20312;-62
2022/12/30 04:14:25;;;;;;;64.22;29.83;;;;;;;-0.84;94.96;147120.00;4781272;30;20038;-61
2022/12/30 04:16:50;;;;;;;61.88;30.20;;;;;;;-0.89;94.41;147109.84;4780388;30;20247;-62
2022/12/30 04:19:16;;;;;;;61.88;30.88;;;;;;;-0.78;95.36;147136.53;4781157;30;20096;-61
2022/12/30 04:21:42;;;;;;;67.55;31.17;;;;;;;-0.84;94.69;147121.31;4780874;30;20032;-61
2022/12/30 04:24:07;;;;;;;66.07;31.50;;;;;;;-0.73;94.53;147147.97;4796720;29;20078;-61
2022/12/30 04:26:33;;;;;;;66.32;32.53;;;;;;;-0.75;94.56;147144.16;4781134;30;20058;-61
2022/12/30 04:28:58;;;;;;;61.03;30.88;;;;;;;-0.71;95.06;147154.31;4781035;30;20040;-62
2022/12/30 04:31:24;;;;;;;64.10;31.13;;;;;;;-0.63;94.75;147173.34;4786560;30;20215;-63
2022/12/30 04:33:51;;;;;;;63.22;31.30;;;;;;;-0.61;94.20;147178.47;4791344;29;20123;-62
2022/12/30 04:36:18;;;;;;;62.63;31.15;;;;;;;-0.49;94.32;147206.44;4780429;30;20028;-61
2022/12/30 04:38:43;;;;;;;64.43;30.95;;;;;;;-0.52;94.75;147200.06;4780924;30;20067;-62
2022/12/30 04:41:09;;;;;;;59.10;29.38;;;;;;;-0.63;94.70;147172.09;4784643;30;20192;-61
2022/12/30 04:43:35;;;;;;;64.88;32.15;;;;;;;-0.59;95.34;147182.28;4799317;29;20047;-61
2022/12/30 04:46:01;;;;;;;65.25;31.60;;;;;;;-0.69;94.96;147158.13;4794665;30;20227;-61
2022/12/30 04:48:26;;;;;;;62.70;31.80;;;;;;;-0.57;94.41;147187.34;4791812;30;20078;-62
2022/12/30 04:50:52;;;;;;;70.47;31.17;;;;;;;-0.65;94.50;147168.28;4795044;30;20034;-63
2022/12/30 04:53:17;;;;;;;56.97;29.88;;;;;;;-0.77;95.22;147137.78;4780750;30;20028;-63
2022/12/30 04:55:43;;;;;;;67.38;31.10;;;;;;;-0.57;94.87;147188.63;4780410;30;20051;-62
2022/12/30 04:58:09;;;;;;;61.28;31.88;;;;;;;-0.54;95.37;147196.25;4780760;30;20150;-62
2022/12/30 05:03:20;;;;;;;69.63;33.90;;;;;;;-0.35;94.81;147242.00;4780728;30;20036;-65
2022/12/30 05:05:46;;;;;;;69.70;33.75;;;;;;;-0.67;94.45;147163.22;4780402;30;20039;-64
2022/12/30 05:08:12;;;;;;;66.88;32.42;;;;;;;-0.55;95.17;147193.69;4780519;30;20036;-63
2022/12/30 05:10:39;;;;;;;65.18;31.15;;;;;;;-0.29;94.18;147257.25;4779907;30;20354;-64
2022/12/30 05:13:04;;;;;;;68.22;32.97;;;;;;;-0.41;93.89;147226.78;4780444;30;20036;-63
2022/12/30 05:15:30;;;;;;;67.07;32.85;;;;;;;-0.39;94.76;147231.81;4780343;30;20081;-64
2022/12/30 05:17:56;;;;;;;65.50;33.72;;;;;;;-0.32;94.41;147248.38;4780375;30;20094;-63
2022/12/30 05:20:22;;;;;;;70.05;34.03;;;;;;;-0.36;94.47;147240.75;4780410;30;20040;-64
2022/12/30 05:22:47;;;;;;;69.20;34.53;;;;;;;-0.47;94.53;147211.47;4788382;30;20059;-65
2022/12/30 05:27:57;;;;;;;68.00;34.08;;;;;;;-0.28;95.14;147258.53;4780188;30;20073;-63
2022/12/30 05:30:23;;;;;;;70.20;33.78;;;;;;;-0.23;94.18;147272.53;4780290;30;20323;-63
2022/12/30 05:32:48;;;;;;;70.70;33.40;;;;;;;-0.44;95.20;147220.41;4780118;30;20050;-63
2022/12/30 05:35:14;;;;;;;63.35;32.42;;;;;;;-0.48;95.34;147210.22;4779138;30;20073;-63
2022/12/30 05:37:40;;;;;;;67.90;32.35;;;;;;;-0.46;95.78;147215.28;4779833;30;20051;-62
2022/12/30 05:40:06;;;;;;;67.88;33.45;;;;;;;-0.44;95.69;147219.09;4779832;30;20099;-63
2022/12/30 05:42:32;;;;;;;63.72;32.92;;;;;;;-0.28;95.05;147259.78;4780278;30;20036;-63
2022/12/30 05:44:57;;;;;;;70.45;34.45;;;;;;;-0.24;95.00;147269.97;4780428;30;20028;-63
2022/12/30 05:47:23;;;;;;;65.07;32.63;;;;;;;-0.39;95.31;147233.09;4782302;30;20046;-63
2022/12/30 05:49:49;;;;;;;67.05;32.65;;;;;;;-0.35;95.02;147242.00;4797326;29;20062;-62
2022/12/30 05:52:15;;;;;;;64.88;32.10;;;;;;;-0.18;94.45;147285.19;4787837;29;20063;-63
2022/12/30 05:54:42;;;;;;;61.63;31.80;;;;;;;-0.10;94.79;147303.00;4779532;30;20361;-62
2022/12/30 05:57:08;;;;;;;61.95;31.65;;;;;;;-0.17;94.37;147286.50;4779694;30;20036;-63
2022/12/30 05:59:33;;;;;;;64.55;30.95;;;;;;;-0.32;94.96;147248.38;4779794;30;20059;-62
2022/12/30 06:02:00;;;;;;;59.85;32.10;;;;;;;-0.05;94.81;147315.72;4779576;30;20219;-62
2022/12/30 06:04:25;;;;;;;60.70;30.92;;;;;;;0.03;94.04;147336.06;4779700;30;20039;-63
2022/12/30 06:06:51;;;;;;;63.22;31.85;;;;;;;0.11;94.11;147356.38;4779720;30;20027;-62
2022/12/30 06:09:17;;;;;;;56.55;29.88;;;;;;;0.14;93.72;147364.06;4779874;30;20081;-63
2022/12/30 06:11:42;;;;;;;59.85;31.63;;;;;;;0.16;93.81;147369.13;4779606;30;20227;-64
2022/12/30 06:14:09;;;;;;;62.08;32.00;;;;;;;-0.02;93.73;147323.34;4779899;30;20216;-63
2022/12/30 06:16:35;;;;;;;62.15;33.40;;;;;;;0.09;93.79;147351.31;4779937;30;20043;-64
2022/12/30 06:19:00;;;;;;;64.93;31.80;;;;;;;0.05;93.84;147341.16;4779887;30;20044;-62
2022/12/30 06:21:26;;;;;;;70.88;33.75;;;;;;;0.02;93.69;147333.53;4778370;30;20028;-64
2022/12/30 06:23:51;;;;;;;72.75;33.15;;;;;;;-0.03;93.66;147320.78;4794978;30;20336;-64
2022/12/30 06:26:17;;;;;;;65.72;33.90;;;;;;;0.19;94.00;147375.47;4777863;29;20063;-63
2022/12/30 06:28:43;;;;;;;71.95;34.40;;;;;;;0.17;93.82;147371.69;4776921;30;20079;-65
2022/12/30 06:31:08;;;;;;;68.13;33.42;;;;;;;0.15;93.87;147366.56;4777323;30;20059;-64
2022/12/30 06:33:35;;;;;;;69.65;34.08;;;;;;;0.09;93.76;147350.06;4777143;30;20082;-64
2022/12/30 06:36:00;;;;;;;73.03;34.90;;;;;;;0.21;94.00;147379.28;4777087;30;20063;-62
2022/12/30 06:38:26;;;;;;;68.60;31.13;;;;;;;0.10;94.20;147352.56;4777287;30;20044;-63
2022/12/30 06:40:51;;;;;;;65.90;33.15;;;;;;;0.06;94.31;147343.69;4777549;30;20040;-63
2022/12/30 06:43:17;;;;;;;65.93;33.83;;;;;;;0.07;94.23;147344.97;4778179;30;20063;-63
2022/12/30 06:45:43;;;;;;;67.13;32.75;;;;;;;0.13;94.65;147360.25;4777188;30;20100;-64
2022/12/30 06:48:08;;;;;;;65.32;33.42;;;;;;;0.04;94.84;147338.59;4784397;30;20063;-62
2022/12/30 06:50:36;;;;;;;63.67;32.65;;;;;;;0.08;94.42;147348.75;4795244;30;20066;-64
2022/12/30 06:53:02;;;;;;;63.58;31.63;;;;;;;0.17;94.22;147371.69;4779558;29;20393;-64
2022/12/30 06:55:27;;;;;;;62.33;31.75;;;;;;;0.09;94.25;147350.06;4776840;30;20135;-64
2022/12/30 06:57:53;;;;;;;58.17;31.42;;;;;;;0.16;94.66;147369.13;4776692;30;20055;-63
2022/12/30 07:00:18;;;;;;;63.53;31.98;;;;;;;0.24;94.81;147386.91;4779090;30;20040;-63
2022/12/30 07:02:44;;;;;;;60.92;32.20;;;;;;;0.39;94.11;147425.06;4779962;30;20043;-63
2022/12/30 07:05:09;;;;;;;60.55;30.88;;;;;;;0.50;93.66;147453.06;4782507;30;20036;-63
2022/12/30 07:07:35;;;;;;;63.45;33.05;;;;;;;0.47;93.20;147444.13;4782285;30;20043;-62
2022/12/30 07:10:01;;;;;;;58.05;29.85;;;;;;;0.59;93.47;147474.69;4782787;30;20031;-63
2022/12/30 07:12:26;;;;;;;56.53;31.02;;;;;;;0.67;93.01;147495.03;4782794;30;20031;-63
2022/12/30 07:14:52;;;;;;;59.25;31.50;;;;;;;0.68;92.71;147497.59;4782505;30;20075;-63
2022/12/30 07:17:17;;;;;;;61.30;32.03;;;;;;;0.62;92.90;147481.06;4782341;30;20035;-64
2022/12/30 07:19:46;;;;;;;63.28;33.40;;;;;;;0.68;92.83;147496.28;4782447;30;20039;-63
2022/12/30 07:22:12;;;;;;;57.33;31.67;;;;;;;0.49;93.12;147450.50;4786294;30;20217;-63
2022/12/30 07:24:38;;;;;;;57.30;30.65;;;;;;;0.59;93.29;147474.69;4795251;29;20043;-64
2022/12/30 07:27:03;;;;;;;59.75;31.77;;;;;;;0.55;92.64;147463.25;4782000;30;20062;-63
2022/12/30 07:29:30;;;;;;;58.10;31.88;;;;;;;0.61;92.95;147479.75;4782273;30;20090;-64
2022/12/30 07:31:55;;;;;;;59.65;31.42;;;;;;;0.66;93.05;147491.22;4782038;30;20043;-62
2022/12/30 07:34:21;;;;;;;54.95;31.35;;;;;;;0.68;92.83;147496.28;4782292;30;20449;-63
2022/12/30 07:36:46;;;;;;;61.83;33.40;;;;;;;0.75;92.71;147512.84;4782119;30;20325;-62
2022/12/30 07:39:12;;;;;;;51.85;29.02;;;;;;;0.93;92.65;147557.41;4782156;30;20089;-62
2022/12/30 07:41:37;;;;;;;54.22;30.60;;;;;;;1.02;92.18;147581.53;4781668;30;20032;-63
2022/12/30 07:44:03;;;;;;;55.67;29.35;;;;;;;1.01;92.28;147579.03;4782175;30;20043;-64
2022/12/30 07:46:29;;;;;;;56.15;30.23;;;;;;;0.98;91.79;147570.09;4781264;30;20095;-64
2022/12/30 07:48:54;;;;;;;49.05;29.30;;;;;;;0.94;92.03;147561.22;4795995;30;20373;-61
2022/12/30 07:51:20;;;;;;;56.53;30.08;;;;;;;1.06;92.40;147589.19;4797277;30;20212;-64
2022/12/30 07:53:45;;;;;;;53.22;29.90;;;;;;;0.84;92.58;147537.03;4781805;30;20044;-63
2022/12/30 07:56:12;;;;;;;52.70;30.10;;;;;;;1.06;92.59;147589.19;4781793;30;20075;-63
2022/12/30 07:58:39;;;;;;;48.50;29.70;;;;;;;1.01;92.46;147577.72;4781530;30;20103;-63
2022/12/30 08:01:06;;;;;;;56.03;31.58;;;;;;;1.05;92.75;147587.91;4780338;30;20042;-65
2022/12/30 08:03:32;;;;;;;52.42;28.23;;;;;;;0.95;92.95;147562.47;4781352;30;20330;-65
2022/12/30 08:06:04;;;;;;;49.85;26.90;;;;;;;1.13;93.13;147608.28;4781528;30;20036;-66
2022/12/30 08:08:30;;;;;;;49.70;28.08;;;;;;;1.13;92.34;147607.00;4763589;30;20039;-65
2022/12/30 08:10:57;;;;;;;55.22;29.85;;;;;;;1.00;92.91;147576.47;4776918;30;20253;-64
2022/12/30 08:13:22;;;;;;;49.17;27.48;;;;;;;0.91;92.70;147553.53;4781211;30;20046;-66
2022/12/30 08:15:48;;;;;;;47.38;27.42;;;;;;;1.03;92.60;147584.09;4781077;30;20032;-65
2022/12/30 08:18:14;;;;;;;44.25;27.67;;;;;;;1.01;92.50;147577.72;4784480;30;20080;-65
2022/12/30 08:20:39;;;;;;;50.20;27.08;;;;;;;1.01;92.46;147577.72;4791685;29;20044;-65
2022/12/30 08:23:06;;;;;;;44.42;26.08;;;;;;;0.98;92.44;147570.09;4791642;30;20071;-65
2022/12/30 08:25:34;;;;;;;47.55;26.83;;;;;;;0.68;93.04;147497.59;4790113;30;20043;-66
2022/12/30 08:27:59;;;;;;;42.65;26.10;;;;;;;0.84;92.63;147535.72;4788821;29;20031;-64
2022/12/30 08:30:26;;;;;;;41.72;26.65;;;;;;;1.00;92.83;147575.22;4789874;30;20102;-65
2022/12/30 08:32:51;;;;;;;49.00;28.95;;;;;;;1.07;92.97;147591.72;4789271;29;20046;-65
2022/12/30 08:35:17;;;;;;;46.35;27.95;;;;;;;1.08;92.20;147594.28;4789219;30;20027;-65
2022/12/30 08:37:42;;;;;;;47.13;27.17;;;;;;;1.11;91.96;147603.19;4789582;30;20300;-66
2022/12/30 08:40:09;;;;;;;43.10;25.67;;;;;;;0.83;92.35;147534.47;4784859;29;20032;-65
2022/12/30 08:42:36;;;;;;;42.50;26.15;;;;;;;0.94;92.70;147561.22;4787538;30;20030;-65
2022/12/30 08:45:03;;;;;;;41.97;25.90;;;;;;;0.87;93.15;147543.41;4789328;30;20035;-65
2022/12/30 08:47:29;;;;;;;41.17;25.23;;;;;;;0.91;93.00;147553.53;4791461;29;20113;-65
2022/12/30 08:49:55;;;;;;;38.55;24.60;;;;;;;1.06;92.96;147590.47;4788440;30;20039;-64
2022/12/30 08:52:20;;;;;;;37.22;24.67;;;;;;;0.93;92.55;147558.66;4789611;29;20082;-65
2022/12/30 08:54:46;;;;;;;41.47;25.98;;;;;;;0.90;92.99;147549.72;4789811;30;20027;-65
2022/12/30 08:57:12;;;;;;;43.03;26.27;;;;;;;0.92;93.85;147554.84;4790204;30;20215;-65
2022/12/30 08:59:38;;;;;;;41.60;25.25;;;;;;;1.10;93.38;147599.34;4789481;29;20094;-65
2022/12/30 09:02:04;;;;;;;40.78;26.83;;;;;;;1.17;92.79;147618.47;4789901;30;20038;-66
2022/12/30 09:04:29;;;;;;;38.47;25.90;;;;;;;1.26;92.54;147638.84;4789634;30;20039;-65
2022/12/30 09:06:55;;;;;;;42.47;26.05;;;;;;;1.28;92.39;147645.16;4782778;30;20031;-65
2022/12/30 09:09:21;;;;;;;41.78;25.60;;;;;;;1.18;92.77;147621.03;4788923;30;20200;-65
2022/12/30 09:11:47;;;;;;;38.63;24.55;;;;;;;1.25;92.80;147636.28;4788801;30;20091;-65
2022/12/30 09:14:14;;;;;;;40.40;25.85;;;;;;;1.33;92.50;147657.91;4789193;30;20023;-65
2022/12/30 09:16:40;;;;;;;43.13;26.42;;;;;;;1.26;92.61;147638.84;4787899;29;20228;-65
2022/12/30 09:19:06;;;;;;;40.95;26.75;;;;;;;1.25;92.59;147637.53;4789594;29;20027;-65
2022/12/30 09:21:31;;;;;;;39.35;24.70;;;;;;;1.23;93.17;147631.16;4787450;29;20059;-65
2022/12/30 09:23:57;;;;;;;40.28;25.10;;;;;;;1.15;93.02;147613.34;4787666;30;20028;-65
2022/12/30 09:26:26;;;;;;;41.65;25.23;;;;;;;1.33;93.21;147656.66;4789682;29;20038;-66
2022/12/30 09:28:52;;;;;;;36.72;24.27;;;;;;;1.22;92.53;147628.66;4789639;29;20039;-65
2022/12/30 09:31:18;;;;;;;41.75;24.55;;;;;;;1.18;92.98;147619.72;4789311;29;20058;-64
2022/12/30 09:33:43;;;;;;;40.88;24.52;;;;;;;0.99;93.81;147572.66;4791352;30;20031;-65
2022/12/30 09:36:09;;;;;;;43.38;25.38;;;;;;;1.20;93.70;147626.09;4789144;30;20070;-65
2022/12/30 09:38:36;;;;;;;35.42;23.77;;;;;;;1.06;93.94;147590.47;4788523;30;20110;-64
2022/12/30 09:41:01;;;;;;;39.72;25.02;;;;;;;1.16;94.02;147614.66;4788967;30;20228;-65
2022/12/30 09:43:36;;;;;;;38.50;24.85;;;;;;;1.33;93.72;147657.91;4789138;30;20038;-65
2022/12/30 09:46:26;;;;;;;41.08;26.17;;;;;;;1.30;93.97;147649.03;4799808;29;20284;-64
2022/12/30 09:49:01;;;;;;;36.58;24.35;;;;;;;1.45;93.50;147685.91;4789986;30;20323;-64
2022/12/30 09:51:34;;;;;;;34.05;23.55;;;;;;;1.31;93.27;147651.53;4787352;30;20062;-65
2022/12/30 09:54:27;;;;;;;36.78;24.42;;;;;;;1.51;93.16;147701.16;4785463;30;20103;-65
2022/12/30 09:57:30;;;;;;;37.95;24.25;;;;;;;1.43;92.69;147682.09;4788593;30;20331;-64
2022/12/30 09:59:44;;;;;;;36.33;23.92;;;;;;;1.34;92.72;147660.47;4788587;30;20039;-65
2022/12/30 10:02:31;;;;;;;35.33;23.40;;;;;;;1.58;92.87;147719.00;4788759;30;20023;-65
2022/12/30 10:04:59;;;;;;;35.55;21.48;;;;;;;1.63;92.68;147730.47;4788819;30;20023;-65
2022/12/30 10:07:31;;;;;;;34.60;22.48;;;;;;;1.62;92.88;147727.91;4788949;30;20031;-65
2022/12/30 10:09:56;;;;;;;;;;;;;;;1.40;93.42;147674.47;4786774;30;20032;-65
2022/12/30 10:12:29;;;;;;;33.78;22.88;;;;;;;1.43;93.40;147682.09;4782823;30;19951;-65
2022/12/30 10:15:21;;;;;;;35.17;22.38;;;;;;;1.47;93.40;147692.28;4779638;30;20086;-64
2022/12/30 10:18:01;;;;;;;34.22;22.88;;;;;;;1.63;93.25;147731.75;4762173;30;20062;-64
2022/12/30 10:20:46;;;;;;;33.35;22.80;;;;;;;1.59;93.47;147720.28;4778544;30;20043;-65
2022/12/30 10:23:23;;;;;;;32.90;21.60;;;;;;;1.52;93.26;147704.97;4804566;29;20070;-65
2022/12/30 10:26:04;;;;;;;30.83;21.42;;;;;;;1.67;93.12;147741.94;4783248;29;20031;-65
2022/12/30 10:28:38;;;;;;;29.60;19.95;;;;;;;1.55;92.87;147711.34;4779673;30;20103;-63
2022/12/30 10:31:07;;;;;;;29.63;20.58;;;;;;;1.55;92.80;147712.66;4779879;30;20085;-65
2022/12/30 10:33:36;;;;;;;27.70;19.00;;;;;;;1.55;93.27;147712.66;4778370;30;20274;-65
2022/12/30 10:36:21;;;;;;;28.10;19.35;;;;;;;1.42;93.32;147678.28;4783183;30;20035;-64
2022/12/30 10:38:47;;;;;;;28.33;20.40;;;;;;;1.64;92.88;147734.28;4765291;30;20032;-64
2022/12/30 10:41:51;;;;;;;27.42;19.00;;;;;;;1.77;92.77;147766.13;4779694;30;20335;-65
2022/12/30 10:44:34;;;;;;;27.52;19.30;;;;;;;1.85;92.88;147786.50;4755373;30;20063;-64
2022/12/30 10:47:16;;;;;;;28.83;19.90;;;;;;;1.84;91.87;147783.94;4782767;30;20051;-65
2022/12/30 10:49:52;;;;;;;24.80;18.33;;;;;;;1.83;92.00;147781.41;4782770;30;20051;-65
2022/12/30 10:52:18;;;;;;;24.08;18.10;;;;;;;1.75;92.01;147759.75;4782531;30;20039;-65
2022/12/30 10:54:45;;;;;;;28.08;19.02;;;;;;;1.70;92.06;147748.31;4782517;30;20336;-64
2022/12/30 10:57:34;;;;;;;26.73;19.20;;;;;;;1.69;92.70;147747.00;4782492;30;20094;-65
2022/12/30 11:00:00;;;;;;;29.27;19.50;;;;;;;1.65;92.55;147736.81;4764547;30;20088;-65
2022/12/30 11:02:33;;;;;;;27.40;18.60;;;;;;;1.71;92.71;147750.81;4780902;30;20070;-64
2022/12/30 11:05:01;;;;;;;26.52;19.35;;;;;;;1.72;93.03;147754.69;4782475;30;20031;-65
2022/12/30 11:07:26;;;;;;;26.58;18.33;;;;;;;1.65;92.78;147736.81;4781950;30;20028;-65
2022/12/30 11:09:52;;;;;;;24.13;18.17;;;;;;;1.63;92.56;147730.47;4782344;30;20051;-64
2022/12/30 11:15:18;;;;;;;26.55;19.02;;;;;;;1.92;92.12;147803.03;4781892;30;20046;-64
2022/12/30 11:17:53;;;;;;;27.52;19.77;;;;;;;1.77;92.44;147766.13;4782307;30;20042;-64
2022/12/30 11:20:21;;;;;;;27.77;18.88;;;;;;;1.82;92.84;147778.84;4782031;30;20074;-64
2022/12/30 11:22:53;;;;;;;29.20;19.30;;;;;;;1.73;92.52;147755.94;4790330;30;20027;-64
2022/12/30 11:25:29;;;;;;;24.65;19.38;;;;;;;1.68;93.03;147744.50;4792261;29;20043;-65
2022/12/30 11:27:58;;;;;;;26.33;18.88;;;;;;;1.80;93.29;147772.50;4781881;30;20143;-65
2022/12/30 11:30:35;;;;;;;26.77;19.67;;;;;;;1.86;92.91;147787.78;4782227;30;20039;-65
2022/12/30 11:33:13;;;;;;;24.33;18.45;;;;;;;1.72;92.73;147753.38;4782371;30;20275;-65
2022/12/30 11:35:42;;;;;;;28.20;18.63;;;;;;;1.95;92.38;147809.41;4780759;30;20043;-64
2022/12/30 11:38:34;;;;;;;25.17;18.00;;;;;;;1.82;92.31;147778.84;4781915;30;20362;-65
2022/12/30 11:41:17;;;;;;;22.27;17.58;;;;;;;2.01;92.22;147825.97;4781923;30;20040;-65
2022/12/30 11:43:49;;;;;;;23.40;17.13;;;;;;;1.86;91.69;147787.78;4781566;30;20043;-65
2022/12/30 11:46:18;;;;;;;23.02;16.98;;;;;;;1.96;91.82;147813.22;4780929;30;20035;-65
2022/12/30 11:48:53;;;;;;;24.17;17.02;;;;;;;2.00;92.25;147823.41;4794257;30;20110;-66
2022/12/30 11:51:32;;;;;;;23.38;17.70;;;;;;;1.92;92.46;147803.03;4798895;30;20056;-64
2022/12/30 11:54:11;;;;;;;23.73;17.13;;;;;;;1.97;92.77;147815.78;4780450;30;20039;-65
2022/12/30 11:56:56;;;;;;;22.92;16.75;;;;;;;1.83;93.16;147780.13;4781684;30;20042;-66
2022/12/30 11:59:27;;;;;;;21.75;16.38;;;;;;;1.80;93.49;147773.75;4795619;30;20040;-65
2022/12/30 12:01:56;;;;;;;21.00;16.17;;;;;;;1.81;93.33;147776.31;4781743;30;20240;-65
2022/12/30 12:04:35;;;;;;;23.77;16.67;;;;;;;1.79;93.54;147771.19;4795627;30;20109;-65
2022/12/30 12:07:03;;;;;;;21.55;15.93;;;;;;;1.85;93.50;147786.50;4781580;30;20046;-65
2022/12/30 12:09:37;;;;;;;23.30;15.88;;;;;;;1.89;93.58;147796.66;4781613;30;20233;-65
2022/12/30 12:12:10;;;;;;;20.67;16.48;;;;;;;1.88;93.55;147792.84;4781539;30;20032;-65
2022/12/30 12:14:58;;;;;;;23.85;16.40;;;;;;;1.96;93.89;147811.97;4781253;30;20081;-65
2022/12/30 12:17:37;;;;;;;21.80;15.75;;;;;;;2.04;94.00;147832.34;4781406;30;20160;-65
2022/12/30 12:20:13;;;;;;;22.35;16.58;;;;;;;1.96;93.85;147811.97;4781290;30;20039;-65
2022/12/30 12:22:54;;;;;;;22.45;15.95;;;;;;;1.95;94.21;147810.66;4788173;30;20039;-65
2022/12/30 12:25:23;;;;;;;20.80;15.75;;;;;;;1.92;94.64;147801.78;4790216;29;20360;-66